sensor_id;sensor_type;location;lat;lon;timestamp;P1;durP1;ratioP1;P2;durP2;ratioP2
63444;SDS011;49573;47.682;9.170;2024-03-25T00:00:38;5.43;;;2.50;;
63444;SDS011;49573;47.682;9.170;2024-03-25T00:03:24;4.82;;;2.45;;
63444;SDS011;49573;47.682;9.170;2024-03-25T00:06:10;3.50;;;2.13;;
63444;SDS011;49573;47.682;9.170;2024-03-25T00:08:58;3.83;;;2.17;;
63444;SDS011;49573;47.682;9.170;2024-03-25T00:11:44;3.58;;;2.30;;
63444;SDS011;49573;47.682;9.170;2024-03-25T00:14:30;6.70;;;2.50;;
63444;SDS011;49573;47.682;9.170;2024-03-25T00:17:16;5.63;;;2.50;;
63444;SDS011;49573;47.682;9.170;2024-03-25T00:20:02;3.97;;;2.33;;
63444;SDS011;49573;47.682;9.170;2024-03-25T00:22:51;3.65;;;2.50;;
63444;SDS011;49573;47.682;9.170;2024-03-25T00:25:39;3.17;;;2.25;;
63444;SDS011;49573;47.682;9.170;2024-03-25T00:28:25;6.38;;;2.88;;
63444;SDS011;49573;47.682;9.170;2024-03-25T00:31:11;5.18;;;2.72;;
63444;SDS011;49573;47.682;9.170;2024-03-25T00:33:57;4.70;;;2.53;;
63444;SDS011;49573;47.682;9.170;2024-03-25T00:36:43;5.05;;;2.60;;
63444;SDS011;49573;47.682;9.170;2024-03-25T00:39:29;5.82;;;2.60;;
63444;SDS011;49573;47.682;9.170;2024-03-25T00:42:21;4.57;;;2.60;;
63444;SDS011;49573;47.682;9.170;2024-03-25T00:45:07;3.97;;;2.70;;
63444;SDS011;49573;47.682;9.170;2024-03-25T00:47:54;5.53;;;2.97;;
63444;SDS011;49573;47.682;9.170;2024-03-25T00:50:40;4.00;;;2.50;;
63444;SDS011;49573;47.682;9.170;2024-03-25T00:53:26;6.88;;;2.90;;
63444;SDS011;49573;47.682;9.170;2024-03-25T00:56:12;5.43;;;2.70;;
63444;SDS011;49573;47.682;9.170;2024-03-25T00:58:59;6.75;;;2.60;;
63444;SDS011;49573;47.682;9.170;2024-03-25T01:01:48;6.47;;;3.00;;
63444;SDS011;49573;47.682;9.170;2024-03-25T01:04:34;7.18;;;2.65;;
63444;SDS011;49573;47.682;9.170;2024-03-25T01:07:20;7.75;;;2.95;;
63444;SDS011;49573;47.682;9.170;2024-03-25T01:10:06;5.32;;;2.70;;
63444;SDS011;49573;47.682;9.170;2024-03-25T01:12:52;5.70;;;2.65;;
63444;SDS011;49573;47.682;9.170;2024-03-25T01:15:40;4.40;;;2.33;;
63444;SDS011;49573;47.682;9.170;2024-03-25T01:18:27;4.28;;;3.10;;
63444;SDS011;49573;47.682;9.170;2024-03-25T01:21:13;5.00;;;2.53;;
63444;SDS011;49573;47.682;9.170;2024-03-25T01:26:46;4.68;;;2.50;;
63444;SDS011;49573;47.682;9.170;2024-03-25T01:29:33;6.07;;;2.65;;
63444;SDS011;49573;47.682;9.170;2024-03-25T01:32:21;6.47;;;3.30;;
63444;SDS011;49573;47.682;9.170;2024-03-25T01:35:07;3.30;;;2.22;;
63444;SDS011;49573;47.682;9.170;2024-03-25T01:37:53;4.55;;;2.60;;
63444;SDS011;49573;47.682;9.170;2024-03-25T01:40:39;4.18;;;2.40;;
63444;SDS011;49573;47.682;9.170;2024-03-25T01:43:25;4.97;;;2.65;;
63444;SDS011;49573;47.682;9.170;2024-03-25T01:46:11;8.15;;;2.55;;
63444;SDS011;49573;47.682;9.170;2024-03-25T01:48:59;4.10;;;2.55;;
63444;SDS011;49573;47.682;9.170;2024-03-25T01:51:45;4.00;;;2.50;;
63444;SDS011;49573;47.682;9.170;2024-03-25T01:54:31;4.83;;;2.83;;
63444;SDS011;49573;47.682;9.170;2024-03-25T01:57:18;5.45;;;2.40;;
63444;SDS011;49573;47.682;9.170;2024-03-25T02:00:05;6.18;;;2.45;;
63444;SDS011;49573;47.682;9.170;2024-03-25T02:02:51;3.83;;;2.00;;
63444;SDS011;49573;47.682;9.170;2024-03-25T02:05:39;5.15;;;2.30;;
63444;SDS011;49573;47.682;9.170;2024-03-25T02:08:26;4.78;;;2.10;;
63444;SDS011;49573;47.682;9.170;2024-03-25T02:11:12;5.05;;;2.30;;
63444;SDS011;49573;47.682;9.170;2024-03-25T02:13:59;6.32;;;2.60;;
63444;SDS011;49573;47.682;9.170;2024-03-25T02:16:45;4.43;;;2.28;;
63444;SDS011;49573;47.682;9.170;2024-03-25T02:19:31;7.38;;;2.40;;
63444;SDS011;49573;47.682;9.170;2024-03-25T02:22:20;4.28;;;2.33;;
63444;SDS011;49573;47.682;9.170;2024-03-25T02:25:06;6.70;;;2.30;;
63444;SDS011;49573;47.682;9.170;2024-03-25T02:27:55;5.25;;;2.05;;
63444;SDS011;49573;47.682;9.170;2024-03-25T02:30:41;2.75;;;2.03;;
63444;SDS011;49573;47.682;9.170;2024-03-25T02:33:27;5.17;;;2.10;;
63444;SDS011;49573;47.682;9.170;2024-03-25T02:36:13;5.30;;;2.38;;
63444;SDS011;49573;47.682;9.170;2024-03-25T02:38:59;4.50;;;2.30;;
63444;SDS011;49573;47.682;9.170;2024-03-25T02:41:45;4.70;;;2.17;;
63444;SDS011;49573;47.682;9.170;2024-03-25T02:44:33;6.53;;;2.25;;
63444;SDS011;49573;47.682;9.170;2024-03-25T02:47:20;4.25;;;1.88;;
63444;SDS011;49573;47.682;9.170;2024-03-25T02:50:06;3.42;;;2.20;;
63444;SDS011;49573;47.682;9.170;2024-03-25T02:52:53;3.97;;;2.15;;
63444;SDS011;49573;47.682;9.170;2024-03-25T02:55:39;6.07;;;2.88;;
63444;SDS011;49573;47.682;9.170;2024-03-25T02:58:25;3.63;;;1.90;;
63444;SDS011;49573;47.682;9.170;2024-03-25T03:01:12;6.53;;;2.23;;
63444;SDS011;49573;47.682;9.170;2024-03-25T03:04:00;6.68;;;2.50;;
63444;SDS011;49573;47.682;9.170;2024-03-25T03:06:46;7.15;;;2.50;;
63444;SDS011;49573;47.682;9.170;2024-03-25T03:09:32;7.72;;;2.65;;
63444;SDS011;49573;47.682;9.170;2024-03-25T03:12:18;3.55;;;2.28;;
63444;SDS011;49573;47.682;9.170;2024-03-25T03:15:05;5.78;;;3.10;;
63444;SDS011;49573;47.682;9.170;2024-03-25T03:17:53;7.28;;;2.40;;
63444;SDS011;49573;47.682;9.170;2024-03-25T03:20:40;6.85;;;2.30;;
63444;SDS011;49573;47.682;9.170;2024-03-25T03:23:26;4.22;;;2.25;;
63444;SDS011;49573;47.682;9.170;2024-03-25T03:26:13;3.65;;;2.05;;
63444;SDS011;49573;47.682;9.170;2024-03-25T03:31:45;4.68;;;2.30;;
63444;SDS011;49573;47.682;9.170;2024-03-25T03:34:32;5.28;;;2.22;;
63444;SDS011;49573;47.682;9.170;2024-03-25T03:37:18;3.50;;;1.90;;
63444;SDS011;49573;47.682;9.170;2024-03-25T03:40:04;4.45;;;2.22;;
63444;SDS011;49573;47.682;9.170;2024-03-25T03:45:37;4.30;;;2.10;;
63444;SDS011;49573;47.682;9.170;2024-03-25T03:48:23;4.85;;;2.05;;
63444;SDS011;49573;47.682;9.170;2024-03-25T03:51:13;5.30;;;2.20;;
63444;SDS011;49573;47.682;9.170;2024-03-25T03:53:59;5.30;;;2.20;;
63444;SDS011;49573;47.682;9.170;2024-03-25T03:56:45;2.78;;;1.80;;
63444;SDS011;49573;47.682;9.170;2024-03-25T03:59:31;3.78;;;2.30;;
63444;SDS011;49573;47.682;9.170;2024-03-25T04:02:17;4.80;;;1.98;;
63444;SDS011;49573;47.682;9.170;2024-03-25T04:05:03;4.97;;;2.07;;
63444;SDS011;49573;47.682;9.170;2024-03-25T04:07:51;5.90;;;1.90;;
63444;SDS011;49573;47.682;9.170;2024-03-25T04:10:37;2.55;;;1.73;;
63444;SDS011;49573;47.682;9.170;2024-03-25T04:13:24;4.05;;;2.15;;
63444;SDS011;49573;47.682;9.170;2024-03-25T04:16:10;3.75;;;2.10;;
63444;SDS011;49573;47.682;9.170;2024-03-25T04:18:56;5.47;;;2.50;;
63444;SDS011;49573;47.682;9.170;2024-03-25T04:21:42;3.42;;;1.80;;
63444;SDS011;49573;47.682;9.170;2024-03-25T04:24:30;5.75;;;2.10;;
63444;SDS011;49573;47.682;9.170;2024-03-25T04:27:16;5.22;;;1.70;;
63444;SDS011;49573;47.682;9.170;2024-03-25T04:30:02;3.17;;;1.83;;
63444;SDS011;49573;47.682;9.170;2024-03-25T04:32:48;4.18;;;1.85;;
63444;SDS011;49573;47.682;9.170;2024-03-25T04:35:34;4.75;;;1.90;;
63444;SDS011;49573;47.682;9.170;2024-03-25T04:38:20;5.30;;;2.22;;
63444;SDS011;49573;47.682;9.170;2024-03-25T04:41:08;3.53;;;2.00;;
63444;SDS011;49573;47.682;9.170;2024-03-25T04:43:54;7.55;;;2.65;;
63444;SDS011;49573;47.682;9.170;2024-03-25T04:46:40;4.25;;;2.40;;
63444;SDS011;49573;47.682;9.170;2024-03-25T04:49:26;5.03;;;1.90;;
63444;SDS011;49573;47.682;9.170;2024-03-25T04:52:12;4.45;;;2.47;;
63444;SDS011;49573;47.682;9.170;2024-03-25T04:54:59;6.68;;;2.38;;
63444;SDS011;49573;47.682;9.170;2024-03-25T04:57:46;5.45;;;2.30;;
63444;SDS011;49573;47.682;9.170;2024-03-25T05:00:32;6.93;;;2.38;;
63444;SDS011;49573;47.682;9.170;2024-03-25T05:03:18;5.32;;;2.30;;
63444;SDS011;49573;47.682;9.170;2024-03-25T05:06:04;4.93;;;2.40;;
63444;SDS011;49573;47.682;9.170;2024-03-25T05:08:50;3.63;;;2.08;;
63444;SDS011;49573;47.682;9.170;2024-03-25T05:11:36;4.82;;;2.13;;
63444;SDS011;49573;47.682;9.170;2024-03-25T05:14:24;3.80;;;2.13;;
63444;SDS011;49573;47.682;9.170;2024-03-25T05:17:10;5.82;;;2.38;;
63444;SDS011;49573;47.682;9.170;2024-03-25T05:19:56;6.10;;;2.45;;
63444;SDS011;49573;47.682;9.170;2024-03-25T05:22:42;4.35;;;2.30;;
63444;SDS011;49573;47.682;9.170;2024-03-25T05:25:28;5.57;;;2.47;;
63444;SDS011;49573;47.682;9.170;2024-03-25T05:28:14;4.05;;;2.30;;
63444;SDS011;49573;47.682;9.170;2024-03-25T05:31:06;3.80;;;2.33;;
63444;SDS011;49573;47.682;9.170;2024-03-25T05:33:53;3.42;;;2.15;;
63444;SDS011;49573;47.682;9.170;2024-03-25T05:36:39;4.05;;;2.38;;
63444;SDS011;49573;47.682;9.170;2024-03-25T05:39:25;4.50;;;2.58;;
63444;SDS011;49573;47.682;9.170;2024-03-25T05:42:11;4.22;;;2.40;;
63444;SDS011;49573;47.682;9.170;2024-03-25T05:44:57;7.05;;;2.85;;
63444;SDS011;49573;47.682;9.170;2024-03-25T05:47:44;8.15;;;3.53;;
63444;SDS011;49573;47.682;9.170;2024-03-25T05:50:30;5.13;;;3.15;;
63444;SDS011;49573;47.682;9.170;2024-03-25T05:53:16;5.13;;;2.50;;
63444;SDS011;49573;47.682;9.170;2024-03-25T05:56:02;5.20;;;2.50;;
63444;SDS011;49573;47.682;9.170;2024-03-25T05:58:49;5.18;;;2.70;;
63444;SDS011;49573;47.682;9.170;2024-03-25T06:01:35;6.28;;;2.70;;
63444;SDS011;49573;47.682;9.170;2024-03-25T06:04:24;7.93;;;3.10;;
63444;SDS011;49573;47.682;9.170;2024-03-25T06:07:10;5.43;;;3.13;;
63444;SDS011;49573;47.682;9.170;2024-03-25T06:09:56;4.90;;;2.50;;
63444;SDS011;49573;47.682;9.170;2024-03-25T06:12:42;5.70;;;2.47;;
63444;SDS011;49573;47.682;9.170;2024-03-25T06:15:28;3.17;;;2.13;;
63444;SDS011;49573;47.682;9.170;2024-03-25T06:18:14;3.97;;;2.38;;
63444;SDS011;49573;47.682;9.170;2024-03-25T06:21:01;5.50;;;2.42;;
63444;SDS011;49573;47.682;9.170;2024-03-25T06:23:48;5.13;;;2.50;;
63444;SDS011;49573;47.682;9.170;2024-03-25T06:26:34;5.07;;;2.60;;
63444;SDS011;49573;47.682;9.170;2024-03-25T06:29:20;4.90;;;2.45;;
63444;SDS011;49573;47.682;9.170;2024-03-25T06:32:07;6.60;;;3.33;;
63444;SDS011;49573;47.682;9.170;2024-03-25T06:35:12;6.00;;;2.47;;
63444;SDS011;49573;47.682;9.170;2024-03-25T06:37:59;5.88;;;2.80;;
63444;SDS011;49573;47.682;9.170;2024-03-25T06:40:45;6.95;;;2.70;;
63444;SDS011;49573;47.682;9.170;2024-03-25T06:43:31;9.85;;;2.95;;
63444;SDS011;49573;47.682;9.170;2024-03-25T06:46:17;5.97;;;2.85;;
63444;SDS011;49573;47.682;9.170;2024-03-25T06:49:03;5.70;;;3.38;;
63444;SDS011;49573;47.682;9.170;2024-03-25T06:51:50;6.18;;;3.33;;
63444;SDS011;49573;47.682;9.170;2024-03-25T06:54:37;5.88;;;2.90;;
63444;SDS011;49573;47.682;9.170;2024-03-25T06:57:24;7.22;;;3.00;;
63444;SDS011;49573;47.682;9.170;2024-03-25T07:00:10;9.07;;;3.58;;
63444;SDS011;49573;47.682;9.170;2024-03-25T07:02:58;6.78;;;3.38;;
63444;SDS011;49573;47.682;9.170;2024-03-25T07:05:44;5.45;;;3.00;;
63444;SDS011;49573;47.682;9.170;2024-03-25T07:08:31;6.18;;;3.20;;
63444;SDS011;49573;47.682;9.170;2024-03-25T07:11:18;6.32;;;3.00;;
63444;SDS011;49573;47.682;9.170;2024-03-25T07:14:05;4.68;;;3.20;;
63444;SDS011;49573;47.682;9.170;2024-03-25T07:16:51;5.07;;;2.55;;
63444;SDS011;49573;47.682;9.170;2024-03-25T07:19:37;6.13;;;2.60;;
63444;SDS011;49573;47.682;9.170;2024-03-25T07:22:24;5.78;;;2.70;;
63444;SDS011;49573;47.682;9.170;2024-03-25T07:25:09;3.97;;;2.67;;
63444;SDS011;49573;47.682;9.170;2024-03-25T07:27:57;4.93;;;2.60;;
63444;SDS011;49573;47.682;9.170;2024-03-25T07:30:43;6.97;;;2.92;;
63444;SDS011;49573;47.682;9.170;2024-03-25T07:33:29;6.05;;;2.60;;
63444;SDS011;49573;47.682;9.170;2024-03-25T07:36:15;3.60;;;2.35;;
63444;SDS011;49573;47.682;9.170;2024-03-25T07:39:01;6.50;;;2.78;;
63444;SDS011;49573;47.682;9.170;2024-03-25T07:41:47;5.22;;;2.75;;
63444;SDS011;49573;47.682;9.170;2024-03-25T07:44:35;5.57;;;2.65;;
63444;SDS011;49573;47.682;9.170;2024-03-25T07:47:21;5.68;;;2.40;;
63444;SDS011;49573;47.682;9.170;2024-03-25T07:50:07;5.13;;;2.55;;
63444;SDS011;49573;47.682;9.170;2024-03-25T07:52:53;3.88;;;2.30;;
63444;SDS011;49573;47.682;9.170;2024-03-25T07:55:39;5.03;;;2.35;;
63444;SDS011;49573;47.682;9.170;2024-03-25T07:58:25;5.22;;;2.20;;
63444;SDS011;49573;47.682;9.170;2024-03-25T08:01:13;5.75;;;2.15;;
63444;SDS011;49573;47.682;9.170;2024-03-25T08:03:59;3.80;;;2.50;;
63444;SDS011;49573;47.682;9.170;2024-03-25T08:06:45;5.43;;;2.58;;
63444;SDS011;49573;47.682;9.170;2024-03-25T08:09:31;5.97;;;2.15;;
63444;SDS011;49573;47.682;9.170;2024-03-25T08:12:17;6.85;;;2.70;;
63444;SDS011;49573;47.682;9.170;2024-03-25T08:15:03;5.65;;;2.67;;
63444;SDS011;49573;47.682;9.170;2024-03-25T08:17:51;3.58;;;2.47;;
63444;SDS011;49573;47.682;9.170;2024-03-25T08:20:37;4.18;;;2.35;;
63444;SDS011;49573;47.682;9.170;2024-03-25T08:23:23;4.10;;;2.35;;
63444;SDS011;49573;47.682;9.170;2024-03-25T08:26:09;5.57;;;2.58;;
63444;SDS011;49573;47.682;9.170;2024-03-25T08:28:55;6.90;;;2.63;;
63444;SDS011;49573;47.682;9.170;2024-03-25T08:31:41;5.85;;;2.58;;
63444;SDS011;49573;47.682;9.170;2024-03-25T08:34:29;5.15;;;2.13;;
63444;SDS011;49573;47.682;9.170;2024-03-25T08:37:15;4.88;;;2.22;;
63444;SDS011;49573;47.682;9.170;2024-03-25T08:40:01;4.13;;;2.20;;
63444;SDS011;49573;47.682;9.170;2024-03-25T08:42:49;5.20;;;2.65;;
63444;SDS011;49573;47.682;9.170;2024-03-25T08:45:35;3.50;;;2.33;;
63444;SDS011;49573;47.682;9.170;2024-03-25T08:48:21;5.03;;;2.45;;
63444;SDS011;49573;47.682;9.170;2024-03-25T08:51:08;3.70;;;2.35;;
63444;SDS011;49573;47.682;9.170;2024-03-25T08:53:55;4.30;;;2.45;;
63444;SDS011;49573;47.682;9.170;2024-03-25T08:56:41;4.90;;;2.28;;
63444;SDS011;49573;47.682;9.170;2024-03-25T08:59:27;4.90;;;2.55;;
63444;SDS011;49573;47.682;9.170;2024-03-25T09:02:13;3.47;;;2.33;;
63444;SDS011;49573;47.682;9.170;2024-03-25T09:04:59;5.32;;;2.50;;
63444;SDS011;49573;47.682;9.170;2024-03-25T09:07:48;6.00;;;2.55;;
63444;SDS011;49573;47.682;9.170;2024-03-25T09:10:37;5.15;;;2.40;;
63444;SDS011;49573;47.682;9.170;2024-03-25T09:13:42;6.00;;;2.88;;
63444;SDS011;49573;47.682;9.170;2024-03-25T09:16:28;4.05;;;2.35;;
63444;SDS011;49573;47.682;9.170;2024-03-25T09:19:14;5.03;;;2.30;;
63444;SDS011;49573;47.682;9.170;2024-03-25T09:21:59;3.78;;;2.28;;
63444;SDS011;49573;47.682;9.170;2024-03-25T09:24:47;3.92;;;2.13;;
63444;SDS011;49573;47.682;9.170;2024-03-25T09:27:34;4.63;;;2.30;;
63444;SDS011;49573;47.682;9.170;2024-03-25T09:30:21;3.10;;;1.77;;
63444;SDS011;49573;47.682;9.170;2024-03-25T09:33:07;7.60;;;2.65;;
63444;SDS011;49573;47.682;9.170;2024-03-25T09:35:53;4.15;;;2.10;;
63444;SDS011;49573;47.682;9.170;2024-03-25T09:38:39;7.68;;;2.53;;
63444;SDS011;49573;47.682;9.170;2024-03-25T09:41:26;5.40;;;2.38;;
63444;SDS011;49573;47.682;9.170;2024-03-25T09:44:14;3.92;;;2.05;;
63444;SDS011;49573;47.682;9.170;2024-03-25T09:47:00;4.05;;;2.30;;
63444;SDS011;49573;47.682;9.170;2024-03-25T09:49:46;3.17;;;2.38;;
63444;SDS011;49573;47.682;9.170;2024-03-25T09:52:33;3.83;;;2.30;;
63444;SDS011;49573;47.682;9.170;2024-03-25T09:55:20;5.63;;;2.25;;
63444;SDS011;49573;47.682;9.170;2024-03-25T09:58:07;3.63;;;1.90;;
63444;SDS011;49573;47.682;9.170;2024-03-25T10:00:54;4.03;;;2.38;;
63444;SDS011;49573;47.682;9.170;2024-03-25T10:03:40;6.68;;;2.53;;
63444;SDS011;49573;47.682;9.170;2024-03-25T10:06:26;5.20;;;2.40;;
63444;SDS011;49573;47.682;9.170;2024-03-25T10:09:12;5.03;;;2.15;;
63444;SDS011;49573;47.682;9.170;2024-03-25T10:11:59;3.42;;;2.17;;
63444;SDS011;49573;47.682;9.170;2024-03-25T10:14:46;3.22;;;2.00;;
63444;SDS011;49573;47.682;9.170;2024-03-25T10:17:33;4.15;;;2.20;;
63444;SDS011;49573;47.682;9.170;2024-03-25T10:20:19;3.60;;;2.10;;
63444;SDS011;49573;47.682;9.170;2024-03-25T10:23:05;5.47;;;2.30;;
63444;SDS011;49573;47.682;9.170;2024-03-25T10:25:52;5.22;;;2.33;;
63444;SDS011;49573;47.682;9.170;2024-03-25T10:28:38;5.03;;;2.38;;
63444;SDS011;49573;47.682;9.170;2024-03-25T10:31:26;4.35;;;2.00;;
63444;SDS011;49573;47.682;9.170;2024-03-25T10:34:13;4.43;;;2.30;;
63444;SDS011;49573;47.682;9.170;2024-03-25T10:36:59;3.78;;;2.15;;
63444;SDS011;49573;47.682;9.170;2024-03-25T10:39:49;4.85;;;2.42;;
63444;SDS011;49573;47.682;9.170;2024-03-25T10:42:36;3.80;;;2.40;;
63444;SDS011;49573;47.682;9.170;2024-03-25T10:45:24;5.15;;;2.30;;
63444;SDS011;49573;47.682;9.170;2024-03-25T10:48:17;5.82;;;2.53;;
63444;SDS011;49573;47.682;9.170;2024-03-25T10:51:05;4.05;;;1.90;;
63444;SDS011;49573;47.682;9.170;2024-03-25T10:53:55;5.30;;;2.40;;
63444;SDS011;49573;47.682;9.170;2024-03-25T10:56:42;4.45;;;2.28;;
63444;SDS011;49573;47.682;9.170;2024-03-25T10:59:29;3.50;;;2.10;;
63444;SDS011;49573;47.682;9.170;2024-03-25T11:02:16;4.65;;;2.30;;
63444;SDS011;49573;47.682;9.170;2024-03-25T11:10:39;2.63;;;1.90;;
63444;SDS011;49573;47.682;9.170;2024-03-25T11:13:26;4.78;;;2.08;;
63444;SDS011;49573;47.682;9.170;2024-03-25T11:16:13;3.90;;;2.25;;
63444;SDS011;49573;47.682;9.170;2024-03-25T11:19:00;4.20;;;2.20;;
63444;SDS011;49573;47.682;9.170;2024-03-25T11:21:48;3.35;;;1.88;;
63444;SDS011;49573;47.682;9.170;2024-03-25T11:24:35;3.40;;;1.65;;
63444;SDS011;49573;47.682;9.170;2024-03-25T11:27:25;3.72;;;1.90;;
63444;SDS011;49573;47.682;9.170;2024-03-25T11:30:12;4.18;;;1.90;;
63444;SDS011;49573;47.682;9.170;2024-03-25T11:35:46;1.92;;;1.20;;
63444;SDS011;49573;47.682;9.170;2024-03-25T11:38:34;3.17;;;1.60;;
63444;SDS011;49573;47.682;9.170;2024-03-25T11:41:20;4.03;;;1.73;;
63444;SDS011;49573;47.682;9.170;2024-03-25T11:44:06;2.13;;;1.37;;
63444;SDS011;49573;47.682;9.170;2024-03-25T11:46:54;2.67;;;1.40;;
63444;SDS011;49573;47.682;9.170;2024-03-25T11:49:41;2.30;;;1.30;;
63444;SDS011;49573;47.682;9.170;2024-03-25T11:52:30;3.90;;;1.90;;
63444;SDS011;49573;47.682;9.170;2024-03-25T11:55:18;2.70;;;1.65;;
63444;SDS011;49573;47.682;9.170;2024-03-25T11:58:04;3.08;;;1.70;;
63444;SDS011;49573;47.682;9.170;2024-03-25T12:00:50;2.35;;;1.65;;
63444;SDS011;49573;47.682;9.170;2024-03-25T12:03:37;3.70;;;1.87;;
63444;SDS011;49573;47.682;9.170;2024-03-25T12:06:23;2.88;;;1.60;;
63444;SDS011;49573;47.682;9.170;2024-03-25T12:09:10;2.03;;;1.40;;
63444;SDS011;49573;47.682;9.170;2024-03-25T12:12:16;4.45;;;1.70;;
63444;SDS011;49573;47.682;9.170;2024-03-25T12:15:02;3.67;;;1.55;;
63444;SDS011;49573;47.682;9.170;2024-03-25T12:20:36;3.07;;;1.37;;
63444;SDS011;49573;47.682;9.170;2024-03-25T12:23:28;3.63;;;1.65;;
63444;SDS011;49573;47.682;9.170;2024-03-25T12:26:14;2.05;;;1.33;;
63444;SDS011;49573;47.682;9.170;2024-03-25T12:29:02;2.17;;;1.23;;
63444;SDS011;49573;47.682;9.170;2024-03-25T12:31:55;2.35;;;1.30;;
63444;SDS011;49573;47.682;9.170;2024-03-25T12:34:42;2.40;;;1.20;;
63444;SDS011;49573;47.682;9.170;2024-03-25T12:37:28;2.87;;;1.80;;
63444;SDS011;49573;47.682;9.170;2024-03-25T12:40:24;2.20;;;1.57;;
63444;SDS011;49573;47.682;9.170;2024-03-25T12:46:00;3.25;;;1.30;;
63444;SDS011;49573;47.682;9.170;2024-03-25T12:48:48;1.42;;;1.00;;
63444;SDS011;49573;47.682;9.170;2024-03-25T12:51:35;2.13;;;1.23;;
63444;SDS011;49573;47.682;9.170;2024-03-25T12:54:21;1.93;;;1.40;;
63444;SDS011;49573;47.682;9.170;2024-03-25T12:57:07;2.03;;;1.13;;
63444;SDS011;49573;47.682;9.170;2024-03-25T12:59:53;1.77;;;1.15;;
63444;SDS011;49573;47.682;9.170;2024-03-25T13:02:40;1.40;;;1.00;;
63444;SDS011;49573;47.682;9.170;2024-03-25T13:05:26;2.00;;;1.02;;
63444;SDS011;49573;47.682;9.170;2024-03-25T13:08:13;2.30;;;1.00;;
63444;SDS011;49573;47.682;9.170;2024-03-25T13:10:59;1.90;;;1.02;;
63444;SDS011;49573;47.682;9.170;2024-03-25T13:13:45;2.05;;;1.10;;
63444;SDS011;49573;47.682;9.170;2024-03-25T13:16:32;1.85;;;1.20;;
63444;SDS011;49573;47.682;9.170;2024-03-25T13:19:19;1.15;;;0.98;;
63444;SDS011;49573;47.682;9.170;2024-03-25T13:22:05;2.20;;;1.10;;
63444;SDS011;49573;47.682;9.170;2024-03-25T13:24:51;1.83;;;1.15;;
63444;SDS011;49573;47.682;9.170;2024-03-25T13:27:37;2.03;;;1.38;;
63444;SDS011;49573;47.682;9.170;2024-03-25T13:30:24;1.48;;;1.17;;
63444;SDS011;49573;47.682;9.170;2024-03-25T13:33:12;3.17;;;1.35;;
63444;SDS011;49573;47.682;9.170;2024-03-25T13:35:59;2.88;;;1.27;;
63444;SDS011;49573;47.682;9.170;2024-03-25T13:38:45;1.30;;;0.98;;
63444;SDS011;49573;47.682;9.170;2024-03-25T13:41:31;2.67;;;1.38;;
63444;SDS011;49573;47.682;9.170;2024-03-25T13:44:17;2.13;;;1.17;;
63444;SDS011;49573;47.682;9.170;2024-03-25T13:47:04;1.92;;;1.30;;
63444;SDS011;49573;47.682;9.170;2024-03-25T13:49:59;2.42;;;1.25;;
63444;SDS011;49573;47.682;9.170;2024-03-25T13:52:47;2.00;;;1.17;;
63444;SDS011;49573;47.682;9.170;2024-03-25T13:55:33;2.47;;;1.40;;
63444;SDS011;49573;47.682;9.170;2024-03-25T13:58:19;4.50;;;1.67;;
63444;SDS011;49573;47.682;9.170;2024-03-25T14:01:05;1.20;;;1.10;;
63444;SDS011;49573;47.682;9.170;2024-03-25T14:03:53;2.15;;;0.98;;
63444;SDS011;49573;47.682;9.170;2024-03-25T14:06:39;2.67;;;1.20;;
63444;SDS011;49573;47.682;9.170;2024-03-25T14:12:13;3.80;;;1.88;;
63444;SDS011;49573;47.682;9.170;2024-03-25T14:14:59;1.77;;;0.88;;
63444;SDS011;49573;47.682;9.170;2024-03-25T14:17:45;2.13;;;1.20;;
63444;SDS011;49573;47.682;9.170;2024-03-25T14:20:31;3.30;;;1.92;;
63444;SDS011;49573;47.682;9.170;2024-03-25T14:23:17;1.85;;;1.00;;
63444;SDS011;49573;47.682;9.170;2024-03-25T14:26:04;4.55;;;1.17;;
63444;SDS011;49573;47.682;9.170;2024-03-25T14:28:50;2.80;;;1.27;;
63444;SDS011;49573;47.682;9.170;2024-03-25T14:31:36;1.67;;;1.05;;
63444;SDS011;49573;47.682;9.170;2024-03-25T14:34:22;3.00;;;0.95;;
63444;SDS011;49573;47.682;9.170;2024-03-25T14:37:08;2.38;;;1.20;;
63444;SDS011;49573;47.682;9.170;2024-03-25T14:39:54;1.98;;;1.00;;
63444;SDS011;49573;47.682;9.170;2024-03-25T14:42:42;1.90;;;1.25;;
63444;SDS011;49573;47.682;9.170;2024-03-25T14:45:28;4.40;;;1.40;;
63444;SDS011;49573;47.682;9.170;2024-03-25T14:48:15;1.38;;;1.00;;
63444;SDS011;49573;47.682;9.170;2024-03-25T14:51:01;3.22;;;1.70;;
63444;SDS011;49573;47.682;9.170;2024-03-25T14:53:47;3.17;;;1.50;;
63444;SDS011;49573;47.682;9.170;2024-03-25T14:56:33;2.00;;;1.17;;
63444;SDS011;49573;47.682;9.170;2024-03-25T14:59:21;2.60;;;1.27;;
63444;SDS011;49573;47.682;9.170;2024-03-25T15:02:07;2.70;;;1.25;;
63444;SDS011;49573;47.682;9.170;2024-03-25T15:04:53;2.88;;;1.70;;
63444;SDS011;49573;47.682;9.170;2024-03-25T15:07:39;2.47;;;1.33;;
63444;SDS011;49573;47.682;9.170;2024-03-25T15:10:26;1.27;;;1.05;;
63444;SDS011;49573;47.682;9.170;2024-03-25T15:13:12;1.88;;;1.20;;
63444;SDS011;49573;47.682;9.170;2024-03-25T15:16:02;1.90;;;1.38;;
63444;SDS011;49573;47.682;9.170;2024-03-25T15:18:50;3.47;;;1.80;;
63444;SDS011;49573;47.682;9.170;2024-03-25T15:21:36;1.77;;;1.17;;
63444;SDS011;49573;47.682;9.170;2024-03-25T15:24:22;2.40;;;1.70;;
63444;SDS011;49573;47.682;9.170;2024-03-25T15:27:08;3.08;;;2.10;;
63444;SDS011;49573;47.682;9.170;2024-03-25T15:29:54;3.00;;;2.00;;
63444;SDS011;49573;47.682;9.170;2024-03-25T15:32:42;1.90;;;1.80;;
63444;SDS011;49573;47.682;9.170;2024-03-25T15:35:28;2.88;;;1.95;;
63444;SDS011;49573;47.682;9.170;2024-03-25T15:38:14;2.10;;;1.90;;
63444;SDS011;49573;47.682;9.170;2024-03-25T15:41:00;2.25;;;1.85;;
63444;SDS011;49573;47.682;9.170;2024-03-25T15:43:50;2.08;;;1.85;;
63444;SDS011;49573;47.682;9.170;2024-03-25T15:46:36;3.08;;;2.10;;
63444;SDS011;49573;47.682;9.170;2024-03-25T15:49:24;1.90;;;1.80;;
63444;SDS011;49573;47.682;9.170;2024-03-25T15:52:11;3.10;;;2.15;;
63444;SDS011;49573;47.682;9.170;2024-03-25T15:54:57;2.92;;;2.10;;
63444;SDS011;49573;47.682;9.170;2024-03-25T15:57:43;2.20;;;2.00;;
63444;SDS011;49573;47.682;9.170;2024-03-25T16:00:30;2.15;;;1.95;;
63444;SDS011;49573;47.682;9.170;2024-03-25T16:03:16;2.40;;;2.00;;
63444;SDS011;49573;47.682;9.170;2024-03-25T16:06:03;3.03;;;1.83;;
63444;SDS011;49573;47.682;9.170;2024-03-25T16:08:50;2.70;;;2.00;;
63444;SDS011;49573;47.682;9.170;2024-03-25T16:11:37;1.80;;;1.70;;
63444;SDS011;49573;47.682;9.170;2024-03-25T16:17:09;2.53;;;1.42;;
63444;SDS011;49573;47.682;9.170;2024-03-25T16:19:55;1.58;;;1.15;;
63444;SDS011;49573;47.682;9.170;2024-03-25T16:22:42;1.45;;;1.20;;
63444;SDS011;49573;47.682;9.170;2024-03-25T16:25:31;1.55;;;1.02;;
63444;SDS011;49573;47.682;9.170;2024-03-25T16:28:18;2.08;;;1.38;;
63444;SDS011;49573;47.682;9.170;2024-03-25T16:31:04;1.77;;;1.38;;
63444;SDS011;49573;47.682;9.170;2024-03-25T16:33:50;4.38;;;2.00;;
63444;SDS011;49573;47.682;9.170;2024-03-25T16:36:36;1.80;;;1.30;;
63444;SDS011;49573;47.682;9.170;2024-03-25T16:39:24;1.80;;;1.48;;
63444;SDS011;49573;47.682;9.170;2024-03-25T16:42:10;3.45;;;1.95;;
63444;SDS011;49573;47.682;9.170;2024-03-25T16:44:56;6.10;;;2.70;;
63444;SDS011;49573;47.682;9.170;2024-03-25T16:47:45;4.18;;;1.80;;
63444;SDS011;49573;47.682;9.170;2024-03-25T16:50:31;3.30;;;1.58;;
63444;SDS011;49573;47.682;9.170;2024-03-25T16:53:17;3.38;;;1.90;;
63444;SDS011;49573;47.682;9.170;2024-03-25T16:56:04;2.25;;;1.70;;
63444;SDS011;49573;47.682;9.170;2024-03-25T16:58:52;4.45;;;1.45;;
63444;SDS011;49573;47.682;9.170;2024-03-25T17:01:38;2.90;;;1.55;;
63444;SDS011;49573;47.682;9.170;2024-03-25T17:04:25;6.03;;;3.10;;
63444;SDS011;49573;47.682;9.170;2024-03-25T17:07:11;2.33;;;1.40;;
63444;SDS011;49573;47.682;9.170;2024-03-25T17:09:57;3.83;;;2.20;;
63444;SDS011;49573;47.682;9.170;2024-03-25T17:12:44;5.38;;;2.20;;